Fillmore, Missouri
Current Conditions -  °F | °C
As of 6:53 AM on Friday 24 Oct 2014 (Local Time) from KSTJ Reporting Station
Haze Haze  
Wind Chill: 57°   Ceiling: 300
Heat Index: 57°   Visibility: 2.5mi
Dew Point: 57°   Wind: 7mph
Humidity: 100%   Direction: 180°S
Pressure: 30.03"   Gusts: NA
Location:  40.03°N, 94.97°W
Report Text: KSTJ 241153Z 18006KT 2 1/2SM BR OVC003 14/14 A3003 RMK AO2 SLP167 T01390139 10139 20100 58004
Loading
Personal Weather Stations






























Interactive Weather Map
Tropical Storm Tracking
New forecast layout! Learn more

10-Day Weather Forecast

Advertisements
Track Severe Weather on mobile